Abie, NE

5:55 PM CST on January 28, 2015 (GMT -0600)
Keating Lake | Change Station
CLOSE
Current Station
Personal Weather Station
Location: Schuyler, NE
Elevation: 1339 ft
Nearby Weather Stations
Active Advisory: Wind Advisory

Elev 1339 ft 41.43 °N, 97.05 °W | Updated 4 seconds ago

Clear
Clear
57.2 °F
Feels Like 57.2 °F
N
4.0
Wind Variable Wind from NW
Gusts 6.0 mph

Today
High -- | Low -- °F
--% Chance of Precip.
Yesterday
High -- | Low -- °F
Precip. -- in
7:43 AM 5:38 PM
Waxing Gibbous, 69% visible
Pressure 29.70 in
Visibility 10.0 miles
Clouds Clear
Dew Point 40 °F
Humidity 52%
Rainfall 0.00 in
Snow Depth Not available.
UV 0 out of 12
Pollen 2.20 out of 12
Air Quality Not available.
Flu Activity Not available.
METAR KAHQ 282335Z AUTO 31003KT 10SM CLR 12/00 A2970 RMK AO2 T01230001

More Conditions Fewer Conditions

Pressure 29.70 in
Visibility 10.0 miles
Clouds Clear
Dew Point 40 °F
Humidity 52%
Rainfall 0.00 in
Snow Depth Not available.
UV 0 out of 12
Pollen 2.20 out of 12
Air Quality Not available.
Flu Activity Not available.
METAR KAHQ 282335Z AUTO 31003KT 10SM CLR 12/00 A2970 RMK AO2 T01230001

More Conditions Fewer Conditions

10-Day Weather Forecast

Almanac

Astronomy

Jan. 28, 2015 Rise Set
Actual Time
Civil Twilight
Nautical Twilight
Astronomical Twilight
Moon
Length of Visible Light
Length of Day
Tomorrow will be .
, % of the Moon is Illuminated

Today's Extremes

State Highs State Lows

Community

WunderPhotos

Upload Photos

1,791,298 photos uploaded!

WunderBlogs® & News

Nearby

Air Quality

  Air Quality AQ Index Pollutant
Not available.

Snow Depth

Station Depth Elevation

Earthquake Activity

City Distance Mag. Time & Date
Minimum magnitude displayed is 2.5.

Coastal Water Temperatures

Place Temperature

Nearby Weather Stations